weather.gov     
National Weather Service

Terminal Aerodrome Forecast
NWS Homepage
This page is being discontinued on March 12, 2014.
The same data is available at this site. Please update your bookmarks.
Thank you, and we apologize for the inconvenience.
Please send an email to SR-SRH.Webmaster@noaa.gov with any concerns.


Current Version
Previous Version:    01  02  03  04  05  06  07  08  09  10  11  12  13  14  15  16  17  18  19  20  21  22  23  24  25  26  27  
[Printable]
316
FTUS42 KRAH 201721
TAFRWI
TAF
KRWI 201721Z 2018/2118 02013G25KT P6SM OVC035
      TEMPO 2019/2023 6SM -RA BKN025
     FM202300 02011KT P6SM SCT020 OVC050
      TEMPO 2108/2112 6SM BR BKN020
     FM211400 02010KT P6SM SKC=




316
FTUS42 KRAH 201721
TAFRWI
TAF
KRWI 201721Z 2018/2118 02013G25KT P6SM OVC035
      TEMPO 2019/2023 6SM -RA BKN025
     FM202300 02011KT P6SM SCT020 OVC050
      TEMPO 2108/2112 6SM BR BKN020
     FM211400 02010KT P6SM SKC=


U.S. Dept. of Commerce
NOAA National Weather Service
1325 East West Highway
Silver Spring, MD 20910
E-mail: w-nws.webmaster@noaa.gov
Page last modified: May 16, 2007
NATIONAL WEATHER SERVICE: for Safety, for Work, for Fun - FOR LIFE